Huvudsida
METAR-TAF:

METAR-TAF

Flygplatser :

Jönköping Airport

Jönköping, Sverige

latitud: 57-46N, longitud: 014-05E, höjd: 226 m

Aktuellt väderrapport

Denna rapport gjordes för 35 minuter sedan, klockan 22:20 UTC
Vind 4 kt från syd
Temperatur -6°C
Fuktighet 100%
Tryck 1010 hPa
Sikt: 7000 m
fuktdis

METAR: ESGJ 232220Z 18004KT 7000 BR NSC M06/M06 Q1010 R19//9//70

Tid: 23:55 (22:55 UTC)

Väderprognos

Denna rapport gjordes för 2 timmar och 25 minuter sedan, klockan 20:30 UTC
Prognos gäller från 23 kl. 21 UTC till 24 kl. 02 UTC
Vind 2 kt från sydväst
Sikt: 6000 m
Sannolikhet 40%
från 23 kl. 21 UTC till 24 kl. 02 UTC
Sikt: 2000 m
fuktdis

TAF: ESGJ 232030Z 2321/2402 23002KT 6000 NSC PROB40 2321/2402 2000 BR

Aktuella väderrapporter och prognoser från 4000 flygplatser (METAR- och TAF-rapporter).

De tillgängliga stationerna syns som gula och röda prickar på kartan.

För musen över prickarna för att se namnen på stationerna.

Klicka sedan för att få väderrapporter och prognoser.

För att ändra kartan: Klicka på de gröna knapparna med ett svart kors på för att zooma in; den gröna knappen med ett streck på för att zooma ut; eller på de gröna pilarna för angränsande kartor.


METAR-TAF: